createdAt,value
2018-05-23T00:00:25.121Z,0.00
2018-05-23T00:01:25.311Z,0.00
2018-05-23T00:02:25.522Z,0.00
2018-05-23T00:03:25.723Z,0.00
2018-05-23T00:04:25.933Z,0.00
2018-05-23T00:05:26.122Z,0.00
2018-05-23T00:06:26.327Z,0.00
2018-05-23T00:07:26.512Z,0.00
2018-05-23T00:08:26.725Z,0.00
2018-05-23T00:09:26.930Z,0.00
2018-05-23T00:10:27.152Z,0.00
2018-05-23T00:11:27.328Z,0.00
2018-05-23T00:12:27.532Z,0.00
2018-05-23T00:13:27.721Z,0.00
2018-05-23T00:14:27.909Z,0.00
2018-05-23T00:15:28.112Z,0.00
2018-05-23T00:16:28.307Z,0.00
2018-05-23T00:17:28.508Z,0.00
2018-05-23T00:18:28.713Z,0.00
2018-05-23T00:19:28.905Z,0.00
2018-05-23T00:20:29.090Z,0.00
2018-05-23T00:21:29.309Z,0.00
2018-05-23T00:22:29.490Z,0.00
2018-05-23T00:23:29.677Z,0.00
2018-05-23T00:24:29.885Z,0.00
2018-05-23T00:25:30.082Z,0.00
2018-05-23T00:26:30.270Z,0.00
2018-05-23T00:27:30.479Z,0.00
2018-05-23T00:28:30.688Z,0.00
2018-05-23T00:29:30.900Z,0.00
2018-05-23T00:30:31.109Z,0.00
2018-05-23T00:31:31.302Z,0.00
2018-05-23T00:32:31.487Z,0.00
2018-05-23T00:33:31.679Z,0.00
2018-05-23T00:34:31.891Z,0.00
2018-05-23T00:35:32.114Z,0.00
2018-05-23T00:36:32.294Z,0.00
2018-05-23T00:37:32.498Z,0.00
2018-05-23T00:38:32.704Z,0.00
2018-05-23T00:39:32.910Z,0.00
2018-05-23T00:40:33.120Z,0.00
2018-05-23T00:41:33.330Z,0.00
2018-05-23T00:42:33.517Z,0.00
2018-05-23T00:43:33.715Z,0.00
2018-05-23T00:44:33.915Z,0.00
2018-05-23T00:45:34.109Z,0.00
2018-05-23T00:46:34.360Z,0.00
2018-05-23T00:47:34.441Z,0.00
2018-05-23T00:48:34.645Z,0.00
2018-05-23T00:49:34.858Z,0.00
2018-05-23T00:50:35.052Z,0.00
2018-05-23T00:51:35.263Z,0.00
2018-05-23T00:52:35.459Z,0.00
2018-05-23T00:53:35.656Z,0.00
2018-05-23T00:54:35.863Z,0.00
2018-05-23T00:55:36.051Z,0.00
2018-05-23T00:56:36.252Z,0.00
2018-05-23T00:57:36.430Z,0.00
2018-05-23T00:58:36.637Z,0.00
2018-05-23T00:59:36.852Z,0.00
2018-05-23T01:00:37.034Z,0.00
2018-05-23T01:01:37.237Z,0.00
2018-05-23T01:02:37.421Z,0.00
2018-05-23T01:03:37.626Z,0.00
2018-05-23T01:04:37.827Z,0.00
2018-05-23T01:05:38.027Z,0.00
2018-05-23T01:06:38.240Z,0.00
2018-05-23T01:07:38.435Z,0.00
2018-05-23T01:08:38.637Z,0.00
2018-05-23T01:09:38.844Z,0.00
2018-05-23T01:10:39.054Z,0.00
2018-05-23T01:11:39.253Z,0.00
2018-05-23T01:12:39.428Z,0.00
2018-05-23T01:13:39.623Z,0.00
2018-05-23T01:14:39.841Z,0.00
2018-05-23T01:15:40.068Z,0.00
2018-05-23T01:16:40.279Z,0.00
2018-05-23T01:17:40.469Z,0.00
2018-05-23T01:18:40.656Z,0.00
2018-05-23T01:19:40.859Z,0.00
2018-05-23T01:20:41.064Z,0.00
2018-05-23T01:21:41.248Z,0.00
2018-05-23T01:22:41.441Z,0.00
2018-05-23T01:23:41.628Z,0.00
2018-05-23T01:24:41.809Z,0.00
2018-05-23T01:25:41.993Z,0.00
2018-05-23T01:26:42.187Z,0.00
2018-05-23T01:27:42.393Z,0.00
2018-05-23T01:28:42.570Z,0.00
2018-05-23T01:29:42.762Z,0.00
2018-05-23T01:30:42.966Z,0.00
2018-05-23T01:31:43.176Z,0.00
2018-05-23T01:32:43.382Z,0.00
2018-05-23T01:33:43.586Z,0.00
2018-05-23T01:34:43.788Z,0.00
2018-05-23T01:35:43.980Z,0.00
2018-05-23T01:36:44.191Z,0.00
2018-05-23T01:37:44.401Z,0.00
2018-05-23T01:38:44.589Z,0.00
2018-05-23T01:39:44.793Z,0.00
2018-05-23T01:40:44.991Z,0.00
2018-05-23T01:41:45.190Z,0.00
2018-05-23T01:42:45.387Z,0.00
2018-05-23T01:43:45.599Z,0.00
2018-05-23T01:44:45.807Z,0.00
2018-05-23T01:45:46.016Z,0.00
2018-05-23T01:46:46.220Z,0.00
2018-05-23T01:47:46.401Z,0.00
2018-05-23T01:48:46.609Z,0.00
2018-05-23T01:49:46.814Z,0.00
2018-05-23T01:50:46.993Z,0.00
2018-05-23T01:51:47.206Z,0.00
2018-05-23T01:52:47.419Z,0.00
2018-05-23T01:53:47.608Z,0.00
2018-05-23T01:54:47.822Z,0.00
2018-05-23T01:55:48.004Z,0.00
2018-05-23T01:56:48.195Z,0.00
2018-05-23T01:57:48.403Z,0.00
2018-05-23T01:58:48.625Z,0.00
2018-05-23T01:59:48.800Z,0.00
2018-05-23T02:00:48.993Z,0.00
2018-05-23T02:01:49.182Z,0.00
2018-05-23T02:02:49.386Z,0.00
2018-05-23T02:03:49.597Z,0.00
2018-05-23T02:04:49.813Z,0.00
2018-05-23T02:05:50.071Z,0.00
2018-05-23T02:06:50.159Z,0.00
2018-05-23T02:09:22.306Z,0.00
2018-05-23T02:10:22.482Z,0.00
2018-05-23T02:11:22.687Z,0.00
2018-05-23T02:12:22.888Z,0.00
2018-05-23T02:13:23.087Z,0.00
2018-05-23T02:14:23.275Z,0.00
2018-05-23T02:15:23.487Z,0.00
2018-05-23T02:16:23.700Z,0.00
2018-05-23T02:17:23.908Z,0.00
2018-05-23T02:18:24.100Z,0.00
2018-05-23T02:19:24.361Z,0.00
2018-05-23T02:20:24.435Z,0.00
2018-05-23T02:21:24.629Z,0.00
2018-05-23T02:22:24.826Z,0.00
2018-05-23T02:23:25.044Z,0.00
2018-05-23T02:24:25.253Z,0.00
2018-05-23T02:25:25.439Z,0.00
2018-05-23T02:26:25.685Z,0.00
2018-05-23T02:27:25.884Z,0.00
2018-05-23T02:28:26.084Z,0.00
2018-05-23T02:29:26.299Z,0.00
2018-05-23T02:30:26.503Z,0.00
2018-05-23T02:31:26.700Z,0.00
2018-05-23T02:32:26.895Z,0.00
2018-05-23T02:33:27.071Z,0.00
2018-05-23T02:34:27.278Z,0.00
2018-05-23T02:35:27.463Z,0.00
2018-05-23T02:36:27.681Z,0.00
2018-05-23T02:37:27.996Z,0.00
2018-05-23T02:38:28.079Z,0.00
2018-05-23T02:39:28.272Z,0.00
2018-05-23T02:40:28.465Z,0.00
2018-05-23T02:41:28.677Z,0.00
2018-05-23T02:42:28.880Z,0.00
2018-05-23T02:43:29.074Z,0.00
2018-05-23T02:44:29.296Z,0.00
2018-05-23T02:45:29.474Z,0.00
2018-05-23T02:46:29.674Z,4.00
2018-05-23T02:47:29.881Z,4.00
2018-05-23T02:48:30.093Z,0.00
2018-05-23T02:49:30.355Z,0.00
2018-05-23T02:50:30.454Z,4.00
2018-05-23T02:51:30.651Z,4.00
2018-05-23T02:52:30.847Z,4.00
2018-05-23T02:53:31.060Z,4.00
2018-05-23T02:54:31.275Z,4.00
2018-05-23T02:55:31.513Z,4.00
2018-05-23T02:56:31.715Z,4.00
2018-05-23T02:57:31.923Z,8.00
2018-05-23T02:58:32.107Z,8.00
2018-05-23T02:59:32.324Z,4.00
2018-05-23T03:00:32.535Z,12.00
2018-05-23T03:01:32.743Z,8.00
2018-05-23T03:02:32.960Z,12.00
2018-05-23T03:03:33.141Z,12.00
2018-05-23T03:04:33.351Z,12.00
2018-05-23T03:05:33.569Z,12.00
2018-05-23T03:06:33.840Z,16.00
2018-05-23T03:07:34.092Z,20.00
2018-05-23T03:08:34.152Z,20.00
2018-05-23T03:09:34.350Z,28.00
2018-05-23T03:10:34.566Z,32.00
2018-05-23T03:11:34.740Z,32.00
2018-05-23T03:12:34.979Z,36.00
2018-05-23T03:13:35.180Z,44.00
2018-05-23T03:14:35.362Z,52.00
2018-05-23T03:15:35.560Z,60.00
2018-05-23T03:16:35.784Z,68.00
2018-05-23T03:17:35.981Z,72.00
2018-05-23T03:18:36.196Z,80.00
2018-05-23T03:19:36.392Z,88.00
2018-05-23T03:20:36.565Z,92.00
2018-05-23T03:21:36.779Z,100.00
2018-05-23T03:22:36.982Z,108.00
2018-05-23T03:23:37.199Z,120.00
2018-05-23T03:24:37.380Z,140.00
2018-05-23T03:25:37.577Z,160.00
2018-05-23T03:26:37.785Z,176.00
2018-05-23T03:27:37.976Z,192.00
2018-05-23T03:28:38.161Z,208.00
2018-05-23T03:31:10.484Z,268.00
2018-05-23T03:32:10.535Z,292.00
2018-05-23T03:33:10.752Z,320.00
2018-05-23T03:34:10.960Z,352.00
2018-05-23T03:35:11.152Z,392.00
2018-05-23T03:36:11.361Z,428.00
2018-05-23T03:37:11.562Z,472.00
2018-05-23T03:38:11.871Z,512.00
2018-05-23T03:39:11.960Z,556.00
2018-05-23T03:40:12.144Z,600.00
2018-05-23T03:41:12.338Z,648.00
2018-05-23T03:42:12.524Z,692.00
2018-05-23T03:43:12.723Z,728.00
2018-05-23T03:44:12.933Z,764.00
2018-05-23T03:45:13.118Z,804.00
2018-05-23T03:46:13.326Z,840.00
2018-05-23T03:47:13.514Z,868.00
2018-05-23T03:48:13.693Z,896.00
2018-05-23T03:49:13.895Z,932.00
2018-05-23T03:50:14.105Z,976.00
2018-05-23T03:51:14.302Z,1020.00
2018-05-23T03:52:14.504Z,1060.00
2018-05-23T03:53:14.688Z,1100.00
2018-05-23T03:54:14.873Z,1136.00
2018-05-23T03:55:15.153Z,1164.00
2018-05-23T03:56:15.336Z,1192.00
2018-05-23T03:57:15.477Z,1224.00
2018-05-23T03:59:47.288Z,1384.00
2018-05-23T04:00:47.463Z,1492.00
2018-05-23T04:01:47.684Z,1636.00
2018-05-23T04:02:47.883Z,1792.00
2018-05-23T04:03:48.071Z,1948.00
2018-05-23T04:04:48.396Z,2112.00
2018-05-23T04:05:48.499Z,2272.00
2018-05-23T04:06:48.690Z,2432.00
2018-05-23T04:09:21.082Z,2848.00
2018-05-23T04:10:21.005Z,3016.00
2018-05-23T04:11:21.204Z,3152.00
2018-05-23T04:12:21.400Z,3260.00
2018-05-23T04:13:21.610Z,3344.00
2018-05-23T04:14:21.940Z,3432.00
2018-05-23T04:15:22.044Z,3516.00
2018-05-23T04:16:22.217Z,3588.00
2018-05-23T04:17:22.431Z,3644.00
2018-05-23T04:18:22.623Z,3672.00
2018-05-23T04:19:22.815Z,3692.00
2018-05-23T04:20:23.001Z,3708.00
2018-05-23T04:21:23.212Z,3752.00
2018-05-23T04:22:23.425Z,3824.00
2018-05-23T04:23:23.601Z,3908.00
2018-05-23T04:24:23.810Z,4028.00
2018-05-23T04:25:24.085Z,4168.00
2018-05-23T04:26:24.155Z,4328.00
2018-05-23T04:27:24.340Z,4488.00
2018-05-23T04:28:24.534Z,4632.00
2018-05-23T04:29:24.746Z,4760.00
2018-05-23T04:30:24.928Z,4872.00
2018-05-23T04:31:25.142Z,4960.00
2018-05-23T04:32:25.425Z,5028.00
2018-05-23T04:33:25.492Z,5100.00
2018-05-23T04:34:25.691Z,5144.00
2018-05-23T04:35:25.977Z,5176.00
2018-05-23T04:36:26.062Z,5184.00
2018-05-23T04:37:26.248Z,5152.00
2018-05-23T04:38:26.437Z,5064.00
2018-05-23T04:39:26.780Z,4928.00
2018-05-23T04:40:26.841Z,4708.00
2018-05-23T04:41:27.054Z,4460.00
2018-05-23T04:42:27.248Z,4240.00
2018-05-23T04:43:27.437Z,4100.00
2018-05-23T04:44:27.655Z,4060.00
2018-05-23T04:45:27.864Z,4048.00
2018-05-23T04:46:28.130Z,4036.00
2018-05-23T04:47:28.207Z,4056.00
2018-05-23T04:48:28.402Z,4096.00
2018-05-23T04:49:28.588Z,4200.00
2018-05-23T04:50:28.794Z,4484.00
2018-05-23T04:51:28.991Z,4716.00
2018-05-23T04:52:29.177Z,6068.00
2018-05-23T04:53:29.388Z,6092.00
2018-05-23T04:54:29.594Z,6496.00
2018-05-23T04:55:29.794Z,5684.00
2018-05-23T04:56:29.987Z,5448.00
2018-05-23T04:57:30.188Z,6000.00
2018-05-23T04:58:30.388Z,8124.00
2018-05-23T04:59:30.566Z,5872.00
2018-05-23T05:00:30.772Z,4592.00
2018-05-23T05:01:30.970Z,4624.00
2018-05-23T05:02:31.155Z,4568.00
2018-05-23T05:03:31.343Z,4644.00
2018-05-23T05:04:31.527Z,4888.00
2018-05-23T05:05:31.726Z,5232.00
2018-05-23T05:06:31.923Z,5232.00
2018-05-23T05:07:32.251Z,5596.00
2018-05-23T05:08:32.331Z,5780.00
2018-05-23T05:09:32.545Z,6208.00
2018-05-23T05:10:32.754Z,6408.00
2018-05-23T05:11:32.979Z,5976.00
2018-05-23T05:12:33.166Z,6076.00
2018-05-23T05:13:33.383Z,6428.00
2018-05-23T05:14:33.590Z,6872.00
2018-05-23T05:15:33.794Z,6908.00
2018-05-23T05:16:33.988Z,7204.00
2018-05-23T05:17:34.187Z,7352.00
2018-05-23T05:18:34.403Z,7160.00
2018-05-23T05:19:34.618Z,6940.00
2018-05-23T05:20:34.822Z,6848.00
2018-05-23T05:21:35.020Z,6812.00
2018-05-23T05:22:35.233Z,6752.00
2018-05-23T05:23:35.437Z,6648.00
2018-05-23T05:24:35.628Z,6540.00
2018-05-23T05:25:35.823Z,6456.00
2018-05-23T05:26:36.037Z,6396.00
2018-05-23T05:27:36.227Z,6328.00
2018-05-23T05:28:36.433Z,6272.00
2018-05-23T05:29:36.646Z,6232.00
2018-05-23T05:30:36.862Z,6164.00
2018-05-23T05:31:37.073Z,6104.00
2018-05-23T05:32:37.270Z,6008.00
2018-05-23T05:33:37.473Z,5912.00
2018-05-23T05:34:37.665Z,5836.00
2018-05-23T05:35:37.853Z,5760.00
2018-05-23T05:36:38.054Z,5716.00
2018-05-23T05:37:38.259Z,5684.00
2018-05-23T05:38:38.448Z,5672.00
2018-05-23T05:39:38.675Z,5668.00
2018-05-23T05:40:38.885Z,5672.00
2018-05-23T05:41:39.107Z,5656.00
2018-05-23T05:42:39.293Z,5640.00
2018-05-23T05:43:39.520Z,5612.00
2018-05-23T05:44:39.744Z,5568.00
2018-05-23T05:45:39.966Z,5496.00
2018-05-23T05:46:40.173Z,5448.00
2018-05-23T05:47:40.366Z,5400.00
2018-05-23T05:48:40.577Z,5384.00
2018-05-23T05:49:40.779Z,5388.00
2018-05-23T05:50:40.982Z,5428.00
2018-05-23T05:51:41.187Z,5460.00
2018-05-23T05:52:41.401Z,5496.00
2018-05-23T05:53:41.627Z,5560.00
2018-05-23T05:54:41.813Z,5644.00
2018-05-23T05:55:42.093Z,5780.00
2018-05-23T05:56:42.163Z,5932.00
2018-05-23T05:57:42.360Z,6112.00
2018-05-23T05:58:42.575Z,6304.00
2018-05-23T05:59:42.788Z,6488.00
2018-05-23T06:00:42.985Z,6680.00
2018-05-23T06:03:14.838Z,7184.00
2018-05-23T06:04:15.019Z,7316.00
2018-05-23T06:05:15.215Z,7440.00
2018-05-23T06:06:15.415Z,7500.00
2018-05-23T06:07:15.612Z,7584.00
2018-05-23T06:08:15.976Z,7704.00
2018-05-23T06:09:16.064Z,7880.00
2018-05-23T06:10:16.252Z,8096.00
2018-05-23T06:11:16.452Z,8312.00
2018-05-23T06:12:16.642Z,8576.00
2018-05-23T06:13:16.836Z,8876.00
2018-05-23T06:14:17.038Z,9224.00
2018-05-23T06:15:17.255Z,9584.00
2018-05-23T06:16:17.441Z,10000.00
2018-05-23T06:17:17.653Z,10400.00
2018-05-23T06:18:17.845Z,10828.00
2018-05-23T06:19:18.040Z,11292.00
2018-05-23T06:20:18.254Z,11744.00
2018-05-23T06:21:18.446Z,12164.00
2018-05-23T06:23:50.565Z,13112.00
2018-05-23T06:24:50.749Z,13456.00
2018-05-23T06:25:50.960Z,13824.00
2018-05-23T06:26:51.184Z,14312.00
2018-05-23T06:27:51.374Z,14576.00
2018-05-23T06:28:51.593Z,15296.00
2018-05-23T06:29:51.797Z,15872.00
2018-05-23T06:30:52.009Z,16256.00
2018-05-23T06:31:52.215Z,16832.00
2018-05-23T06:32:52.428Z,18112.00
2018-05-23T06:33:52.615Z,18112.00
2018-05-23T06:34:52.832Z,19072.00
2018-05-23T06:35:53.092Z,20736.00
2018-05-23T06:36:53.285Z,22016.00
2018-05-23T06:37:53.537Z,22016.00
2018-05-23T06:38:53.714Z,21952.00
2018-05-23T06:39:53.944Z,23584.00
2018-05-23T06:40:54.157Z,25568.00
2018-05-23T06:41:54.351Z,27264.00
2018-05-23T06:42:54.545Z,28576.00
2018-05-23T06:43:54.753Z,29792.00
2018-05-23T06:44:54.960Z,33248.00
2018-05-23T06:45:55.149Z,38528.00
2018-05-23T06:46:55.354Z,34304.00
2018-05-23T06:47:55.583Z,36672.00
2018-05-23T06:48:55.783Z,37792.00
2018-05-23T06:49:56.807Z,40096.00
2018-05-23T06:50:56.231Z,40480.00
2018-05-23T06:51:56.439Z,37440.00
2018-05-23T06:52:56.626Z,38304.00
2018-05-23T06:53:56.824Z,38848.00
2018-05-23T06:54:57.022Z,39744.00
2018-05-23T06:55:57.206Z,40704.00
2018-05-23T06:56:57.405Z,39520.00
2018-05-23T06:57:57.612Z,35744.00
2018-05-23T06:58:57.833Z,27040.00
2018-05-23T06:59:58.065Z,24864.00
2018-05-23T07:00:58.275Z,23840.00
2018-05-23T07:01:58.493Z,23552.00
2018-05-23T07:02:58.704Z,23008.00
2018-05-23T07:03:58.914Z,21088.00
2018-05-23T07:04:59.132Z,19488.00
2018-05-23T07:05:59.323Z,18336.00
2018-05-23T07:06:59.524Z,17696.00
2018-05-23T07:07:59.730Z,17376.00
2018-05-23T07:08:59.938Z,17312.00
2018-05-23T07:10:00.159Z,17472.00
2018-05-23T07:11:00.460Z,17536.00
2018-05-23T07:12:00.559Z,17472.00
2018-05-23T07:13:00.782Z,17312.00
2018-05-23T07:14:00.993Z,17120.00
2018-05-23T07:15:01.210Z,16992.00
2018-05-23T07:16:01.411Z,16992.00
2018-05-23T07:17:01.639Z,17056.00
2018-05-23T07:18:01.891Z,17120.00
2018-05-23T07:19:02.056Z,17152.00
2018-05-23T07:20:02.269Z,17312.00
2018-05-23T07:21:02.483Z,17760.00
2018-05-23T07:22:02.673Z,18496.00
2018-05-23T07:23:02.864Z,19424.00
2018-05-23T07:24:03.064Z,20480.00
2018-05-23T07:25:03.264Z,21792.00
2018-05-23T07:26:03.477Z,40416.00
2018-05-23T07:27:03.678Z,24608.00
2018-05-23T07:28:03.892Z,30528.00
2018-05-23T07:29:04.093Z,31680.00
2018-05-23T07:30:04.317Z,38016.00
2018-05-23T07:31:04.512Z,44832.00
2018-05-23T07:32:04.701Z,50880.00
2018-05-23T07:33:04.920Z,62496.00
2018-05-23T07:34:05.119Z,49824.00
2018-05-23T07:35:05.313Z,67392.00
2018-05-23T07:36:05.515Z,70272.00
2018-05-23T07:37:05.719Z,67840.00
2018-05-23T07:38:05.925Z,63520.00
2018-05-23T07:39:06.178Z,66784.00
2018-05-23T07:40:06.387Z,67200.00
2018-05-23T07:41:06.590Z,65344.00
2018-05-23T07:42:06.781Z,62016.00
2018-05-23T07:43:07.004Z,64512.00
2018-05-23T07:44:07.225Z,66432.00
2018-05-23T07:45:07.424Z,64032.00
2018-05-23T07:46:07.646Z,58144.00
2018-05-23T07:47:07.848Z,55520.00
2018-05-23T07:48:08.073Z,44928.00
2018-05-23T07:49:08.267Z,39872.00
2018-05-23T07:50:08.485Z,37184.00
2018-05-23T07:51:08.705Z,27840.00
2018-05-23T07:53:41.023Z,23328.00
2018-05-23T07:54:41.207Z,27648.00
2018-05-23T07:55:41.404Z,31008.00
2018-05-23T07:56:41.655Z,36832.00
2018-05-23T07:57:41.838Z,38528.00
2018-05-23T07:58:42.065Z,37664.00
2018-05-23T07:59:42.284Z,37056.00
2018-05-23T08:00:42.481Z,39712.00
2018-05-23T08:01:42.677Z,41504.00
2018-05-23T08:02:42.863Z,46432.00
2018-05-23T08:03:43.056Z,44416.00
2018-05-23T08:04:43.275Z,41920.00
2018-05-23T08:05:43.481Z,42432.00
2018-05-23T08:06:43.675Z,41824.00
2018-05-23T08:07:43.888Z,43712.00
2018-05-23T08:08:44.116Z,39872.00
2018-05-23T08:09:44.322Z,36640.00
2018-05-23T08:10:44.512Z,34496.00
2018-05-23T08:11:44.749Z,32608.00
2018-05-23T08:12:44.954Z,32800.00
2018-05-23T08:13:45.141Z,34560.00
2018-05-23T08:14:45.360Z,35360.00
2018-05-23T08:15:45.574Z,37376.00
2018-05-23T08:16:45.890Z,35488.00
2018-05-23T08:17:45.980Z,31520.00
2018-05-23T08:18:46.194Z,33632.00
2018-05-23T08:19:46.397Z,37856.00
2018-05-23T08:20:46.599Z,36800.00
2018-05-23T08:21:46.805Z,35808.00
2018-05-23T08:22:47.009Z,33728.00
2018-05-23T08:23:47.229Z,36768.00
2018-05-23T08:24:47.427Z,35904.00
2018-05-23T08:25:47.613Z,34720.00
2018-05-23T08:26:47.839Z,34496.00
2018-05-23T08:27:48.036Z,33856.00
2018-05-23T08:28:48.263Z,32992.00
2018-05-23T08:29:48.534Z,32000.00
2018-05-23T08:30:48.680Z,33344.00
2018-05-23T08:31:48.882Z,34784.00
2018-05-23T08:32:49.115Z,36064.00
2018-05-23T08:33:49.344Z,37216.00
2018-05-23T08:34:49.529Z,37888.00
2018-05-23T08:35:49.749Z,40224.00
2018-05-23T08:36:49.970Z,43424.00
2018-05-23T08:37:50.164Z,46176.00
2018-05-23T08:38:50.485Z,45440.00
2018-05-23T08:39:50.554Z,45024.00
2018-05-23T08:40:50.777Z,46880.00
2018-05-23T08:41:50.963Z,48512.00
2018-05-23T08:42:51.185Z,48736.00
2018-05-23T08:43:51.386Z,50656.00
2018-05-23T08:44:51.571Z,53952.00
2018-05-23T08:45:51.787Z,58464.00
2018-05-23T08:46:51.988Z,59424.00
2018-05-23T08:47:52.181Z,62080.00
2018-05-23T08:48:52.385Z,63808.00
2018-05-23T08:49:52.602Z,66688.00
2018-05-23T08:50:52.807Z,67680.00
2018-05-23T08:51:53.005Z,68800.00
2018-05-23T08:52:53.214Z,69440.00
2018-05-23T08:53:53.407Z,68736.00
2018-05-23T08:54:53.637Z,66112.00
2018-05-23T08:55:53.856Z,65632.00
2018-05-23T08:56:54.077Z,61152.00
2018-05-23T08:57:54.280Z,59712.00
2018-05-23T08:58:54.498Z,59104.00
2018-05-23T08:59:54.729Z,56832.00
2018-05-23T09:00:54.954Z,50432.00
2018-05-23T09:01:55.145Z,39584.00
2018-05-23T09:02:55.347Z,37280.00
2018-05-23T09:03:55.554Z,35232.00
2018-05-23T09:04:55.877Z,26112.00
2018-05-23T09:05:55.931Z,25952.00
2018-05-23T09:06:56.133Z,24576.00
2018-05-23T09:07:56.349Z,23328.00
2018-05-23T09:08:56.541Z,23712.00
2018-05-23T09:11:28.875Z,23968.00
2018-05-23T09:12:29.172Z,24864.00
2018-05-23T09:13:29.285Z,26560.00
2018-05-23T09:14:29.703Z,27648.00
2018-05-23T09:15:29.753Z,28896.00
2018-05-23T09:16:29.831Z,27840.00
2018-05-23T09:17:30.023Z,28480.00
2018-05-23T09:18:30.224Z,28352.00
2018-05-23T09:19:30.431Z,29056.00
2018-05-23T09:20:30.640Z,29664.00
2018-05-23T09:21:30.841Z,29280.00
2018-05-23T09:22:31.066Z,30528.00
2018-05-23T09:23:31.287Z,31136.00
2018-05-23T09:24:31.480Z,31872.00
2018-05-23T09:25:31.773Z,31936.00
2018-05-23T09:26:31.864Z,34368.00
2018-05-23T09:27:32.080Z,33792.00
2018-05-23T09:28:32.288Z,32896.00
2018-05-23T09:29:32.490Z,33216.00
2018-05-23T09:30:32.693Z,36576.00
2018-05-23T09:31:32.904Z,38496.00
2018-05-23T09:32:33.110Z,41440.00
2018-05-23T09:33:33.331Z,42144.00
2018-05-23T09:34:33.542Z,43712.00
2018-05-23T09:35:33.777Z,44320.00
2018-05-23T09:36:33.999Z,38272.00
2018-05-23T09:37:34.188Z,32832.00
2018-05-23T09:38:34.402Z,29664.00
2018-05-23T09:39:34.601Z,27232.00
2018-05-23T09:40:34.806Z,28320.00
2018-05-23T09:41:35.013Z,27264.00
2018-05-23T09:42:35.229Z,29696.00
2018-05-23T09:43:35.432Z,27904.00
2018-05-23T09:44:35.655Z,27136.00
2018-05-23T09:45:35.861Z,23616.00
2018-05-23T09:46:36.063Z,21920.00
2018-05-23T09:47:36.258Z,22208.00
2018-05-23T09:48:36.464Z,21920.00
2018-05-23T09:49:36.656Z,21312.00
2018-05-23T09:50:36.849Z,21056.00
2018-05-23T09:51:37.069Z,20928.00
2018-05-23T09:52:37.258Z,20992.00
2018-05-23T09:53:37.456Z,21088.00
2018-05-23T09:54:37.647Z,21248.00
2018-05-23T09:55:37.866Z,21440.00
2018-05-23T09:56:38.070Z,21728.00
2018-05-23T09:59:10.216Z,22432.00
2018-05-23T10:00:10.395Z,22912.00
2018-05-23T10:01:10.613Z,23424.00
2018-05-23T10:02:10.842Z,24352.00
2018-05-23T10:03:11.062Z,25440.00
2018-05-23T10:04:11.271Z,26240.00
2018-05-23T10:05:11.475Z,28000.00
2018-05-23T10:06:11.777Z,29952.00
2018-05-23T10:07:11.862Z,29920.00
2018-05-23T10:08:12.082Z,32032.00
2018-05-23T10:09:12.281Z,32928.00
2018-05-23T10:10:12.486Z,36704.00
2018-05-23T10:11:12.678Z,37152.00
2018-05-23T10:12:12.868Z,37216.00
2018-05-23T10:13:13.084Z,36032.00
2018-05-23T10:14:13.305Z,35520.00
2018-05-23T10:15:13.572Z,36224.00
2018-05-23T10:16:13.722Z,35456.00
2018-05-23T10:17:14.037Z,35648.00
2018-05-23T10:18:14.124Z,35648.00
2018-05-23T10:19:14.339Z,34080.00
2018-05-23T10:20:14.608Z,36864.00
2018-05-23T10:21:14.701Z,39328.00
2018-05-23T10:22:14.908Z,40832.00
2018-05-23T10:23:15.116Z,40384.00
2018-05-23T10:24:15.323Z,39360.00
2018-05-23T10:25:15.583Z,36992.00
2018-05-23T10:26:15.898Z,35232.00
2018-05-23T10:27:16.004Z,34880.00
2018-05-23T10:28:16.205Z,32864.00
2018-05-23T10:29:16.427Z,32288.00
2018-05-23T10:30:16.656Z,29184.00
2018-05-23T10:31:16.839Z,30528.00
2018-05-23T10:32:17.030Z,26080.00
2018-05-23T10:33:17.294Z,23200.00
2018-05-23T10:34:17.447Z,22336.00
2018-05-23T10:35:17.639Z,22304.00
2018-05-23T10:36:17.858Z,22080.00
2018-05-23T10:37:18.070Z,21856.00
2018-05-23T10:38:18.275Z,21792.00
2018-05-23T10:39:18.496Z,21952.00
2018-05-23T10:40:18.711Z,21728.00
2018-05-23T10:41:18.922Z,22080.00
2018-05-23T10:42:19.139Z,22112.00
2018-05-23T10:43:19.309Z,22400.00
2018-05-23T10:44:19.532Z,23104.00
2018-05-23T10:45:19.746Z,24032.00
2018-05-23T10:46:19.959Z,24224.00
2018-05-23T10:47:20.147Z,24640.00
2018-05-23T10:48:20.355Z,24992.00
2018-05-23T10:49:20.555Z,25472.00
2018-05-23T10:50:20.776Z,25504.00
2018-05-23T10:51:20.980Z,25792.00
2018-05-23T10:52:21.181Z,25696.00
2018-05-23T10:53:21.390Z,25376.00
2018-05-23T10:54:21.623Z,25280.00
2018-05-23T10:55:21.826Z,25216.00
2018-05-23T10:56:22.040Z,25312.00
2018-05-23T10:57:22.258Z,25216.00
2018-05-23T10:58:22.450Z,23808.00
2018-05-23T10:59:22.676Z,23072.00
2018-05-23T11:00:22.886Z,22752.00
2018-05-23T11:01:23.080Z,22752.00
2018-05-23T11:02:23.313Z,22368.00
2018-05-23T11:03:23.543Z,22208.00
2018-05-23T11:04:23.742Z,22048.00
2018-05-23T11:05:24.000Z,21344.00
2018-05-23T11:06:24.090Z,21248.00
2018-05-23T11:07:24.295Z,21440.00
2018-05-23T11:08:24.505Z,21664.00
2018-05-23T11:09:24.716Z,21472.00
2018-05-23T11:10:24.932Z,21184.00
2018-05-23T11:11:25.157Z,20768.00
2018-05-23T11:12:25.365Z,20288.00
2018-05-23T11:13:25.591Z,19936.00
2018-05-23T11:14:25.804Z,19648.00
2018-05-23T11:16:57.960Z,19040.00
2018-05-23T11:17:58.140Z,18912.00
2018-05-23T11:18:58.352Z,18688.00
2018-05-23T11:19:58.567Z,18272.00
2018-05-23T11:20:58.781Z,17856.00
2018-05-23T11:21:58.978Z,17248.00
2018-05-23T11:22:59.182Z,17088.00
2018-05-23T11:23:59.391Z,17024.00
2018-05-23T11:24:59.608Z,16928.00
2018-05-23T11:25:59.799Z,16704.00
2018-05-23T11:27:00.096Z,16544.00
2018-05-23T11:28:00.161Z,16320.00
2018-05-23T11:29:00.387Z,16192.00
2018-05-23T11:30:00.607Z,16160.00
2018-05-23T11:31:00.801Z,16000.00
2018-05-23T11:32:00.992Z,15840.00
2018-05-23T11:33:01.205Z,15776.00
2018-05-23T11:35:33.061Z,15252.00
2018-05-23T11:36:33.243Z,15188.00
2018-05-23T11:37:33.435Z,15152.00
2018-05-23T11:38:33.636Z,15136.00
2018-05-23T11:39:33.842Z,15040.00
2018-05-23T11:40:34.063Z,15040.00
2018-05-23T11:41:34.289Z,15084.00
2018-05-23T11:42:34.495Z,15136.00
2018-05-23T11:43:34.701Z,15120.00
2018-05-23T11:44:34.910Z,15108.00
2018-05-23T11:45:35.132Z,15116.00
2018-05-23T11:46:35.374Z,15128.00
2018-05-23T11:47:35.557Z,15096.00
2018-05-23T11:48:35.757Z,15084.00
2018-05-23T11:49:35.953Z,15024.00
2018-05-23T11:50:36.153Z,14984.00
2018-05-23T11:51:36.371Z,14996.00
2018-05-23T11:52:36.585Z,15056.00
2018-05-23T11:53:36.797Z,15048.00
2018-05-23T11:54:37.033Z,14900.00
2018-05-23T11:55:37.185Z,14800.00
2018-05-23T11:56:37.384Z,14824.00
2018-05-23T11:57:37.589Z,14816.00
2018-05-23T11:58:37.786Z,14832.00
2018-05-23T11:59:37.990Z,14856.00
2018-05-23T12:00:38.179Z,14704.00
2018-05-23T12:01:38.524Z,14828.00
2018-05-23T12:02:38.603Z,14980.00
2018-05-23T12:03:38.796Z,15228.00
2018-05-23T12:04:38.998Z,15048.00
2018-05-23T12:05:39.188Z,15144.00
2018-05-23T12:06:39.394Z,14924.00
2018-05-23T12:07:39.598Z,14568.00
2018-05-23T12:08:39.916Z,14120.00
2018-05-23T12:09:39.984Z,13836.00
2018-05-23T12:10:40.305Z,13684.00
2018-05-23T12:11:40.403Z,13644.00
2018-05-23T12:12:40.619Z,13692.00
2018-05-23T12:13:40.839Z,13712.00
2018-05-23T12:14:41.029Z,13736.00
2018-05-23T12:15:41.327Z,13728.00
2018-05-23T12:16:41.461Z,13776.00
2018-05-23T12:17:41.668Z,13684.00
2018-05-23T12:18:41.862Z,13692.00
2018-05-23T12:19:42.140Z,13652.00
2018-05-23T12:20:42.260Z,13636.00
2018-05-23T12:21:42.465Z,13584.00
2018-05-23T12:22:42.678Z,13580.00
2018-05-23T12:23:42.882Z,13584.00
2018-05-23T12:26:15.221Z,13536.00
2018-05-23T12:27:15.424Z,13532.00
2018-05-23T12:28:15.616Z,13460.00
2018-05-23T12:29:15.825Z,13396.00
2018-05-23T12:30:16.128Z,13444.00
2018-05-23T12:31:16.268Z,13548.00
2018-05-23T12:32:16.462Z,13664.00
2018-05-23T12:33:16.661Z,13760.00
2018-05-23T12:34:16.879Z,13908.00